Heinsburg, Canada
Current Conditions -  °F | °C
As of 9:00 AM on Thursday 30 Oct 2014 (Local Time) from CYLL Reporting Station
Haze Haze  
Wind Chill: 22°   Ceiling: 400
Heat Index: 32°   Visibility: 6mi
Dew Point: 30°   Wind: 14mph
Humidity: 93%   Direction: 150°SSE
Pressure: 30.33"   Gusts: 22mph
Location:  53.77°N, 110.52°W
Report Text: CYLL 301500Z 15012G19KT 6SM BR OVC004 M00/M01 A3033 RMK ST8 SLP307
Loading
Personal Weather Stations






























Interactive Weather Map
Tropical Storm Tracking
New forecast layout! Learn more

10-Day Weather Forecast

Advertisements
Track Severe Weather on mobile